createdAt,value
2022-11-12T00:01:20.729Z,100019.94
2022-11-12T00:04:06.911Z,100025.22
2022-11-12T00:06:52.142Z,100020.81
2022-11-12T00:09:37.462Z,100020.81
2022-11-12T00:12:22.640Z,100009.31
2022-11-12T00:15:08.300Z,100019.88
2022-11-12T00:17:53.645Z,100014.59
2022-11-12T00:20:39.117Z,100021.59
2022-11-12T00:23:24.375Z,100013.66
2022-11-12T00:26:10.466Z,100013.66
2022-11-12T00:28:55.797Z,100010.19
2022-11-12T00:31:40.974Z,100013.66
2022-11-12T00:34:26.265Z,100009.25
2022-11-12T00:37:11.634Z,100009.44
2022-11-12T00:39:56.750Z,100016.31
2022-11-12T00:42:41.938Z,100014.59
2022-11-12T00:45:27.059Z,100018.09
2022-11-12T00:48:12.510Z,100007.59
2022-11-12T00:51:05.831Z,100011.94
2022-11-12T00:53:51.087Z,100012.81
2022-11-12T00:56:36.198Z,100016.41
2022-11-12T00:59:21.409Z,100011.91
2022-11-12T01:02:06.560Z,100014.59
2022-11-12T01:04:51.788Z,100016.41
2022-11-12T01:07:37.060Z,100018.09
2022-11-12T01:10:22.551Z,100018.09
2022-11-12T01:13:07.864Z,100023.41
2022-11-12T01:15:52.839Z,100020.75
2022-11-12T01:18:38.685Z,100036.63
2022-11-12T01:21:25.627Z,100027.88
2022-11-12T01:24:11.717Z,100038.34
2022-11-12T01:26:56.803Z,100024.25
2022-11-12T01:29:42.101Z,100032.19
2022-11-12T01:32:28.077Z,100019.88
2022-11-12T01:35:13.393Z,100019.03
2022-11-12T01:37:58.607Z,100019.88
2022-11-12T01:40:43.816Z,100018.16
2022-11-12T01:43:29.088Z,100024.31
2022-11-12T01:46:27.686Z,100026.97
2022-11-12T01:49:19.215Z,100020.84
2022-11-12T01:52:17.255Z,100024.31
2022-11-12T01:55:07.425Z,100032.25
2022-11-12T01:57:59.647Z,100026.97
2022-11-12T02:00:45.594Z,100031.38
2022-11-12T02:03:31.959Z,100039.31
2022-11-12T02:06:18.487Z,100028.75
2022-11-12T02:09:04.299Z,100008.03
2022-11-12T02:11:49.484Z,100021.69
2022-11-12T02:14:35.052Z,100028.75
2022-11-12T02:17:20.852Z,100022.56
2022-11-12T02:20:10.562Z,100027.03
2022-11-12T02:22:56.007Z,100016.53
2022-11-12T02:25:41.242Z,100020.84
2022-11-12T02:28:27.882Z,100020.84
2022-11-12T02:31:13.595Z,100026.16
2022-11-12T02:33:58.903Z,100022.66
2022-11-12T02:36:43.828Z,100029.75
2022-11-12T02:39:28.989Z,100020.94
2022-11-12T02:42:14.272Z,100018.28
2022-11-12T02:44:59.380Z,100020.94
2022-11-12T02:49:57.907Z,100018.28
2022-11-12T02:52:43.356Z,100025.38
2022-11-12T02:55:28.587Z,100020.94
2022-11-12T02:58:15.987Z,100023.59
2022-11-12T03:01:01.335Z,100022.75
2022-11-12T03:03:46.618Z,100013.94
2022-11-12T03:06:32.025Z,99998.59
2022-11-12T03:09:17.371Z,100015.75
2022-11-12T03:12:02.630Z,100014.03
2022-11-12T03:17:01.320Z,100019.31
2022-11-12T03:19:46.251Z,100016.75
2022-11-12T03:22:31.512Z,100014.94
2022-11-12T03:25:16.748Z,100012.31
2022-11-12T03:30:23.488Z,100011.47
2022-11-12T03:33:10.966Z,100015.88
2022-11-12T03:38:18.274Z,100020.31
2022-11-12T03:43:17.671Z,100008.03
2022-11-12T03:46:02.753Z,100011.69
2022-11-12T03:48:48.092Z,100009.88
2022-11-12T03:51:33.146Z,100008.19
2022-11-12T03:54:20.050Z,100004.84
2022-11-12T03:57:05.528Z,100016.13
2022-11-12T03:59:50.658Z,100015.25
2022-11-12T04:02:36.350Z,100003.81
2022-11-12T04:05:40.200Z,100002.94
2022-11-12T04:08:37.691Z,100014.44
2022-11-12T04:11:23.403Z,100010.13
2022-11-12T04:14:08.722Z,100011.06
2022-11-12T04:17:12.584Z,100003.97
2022-11-12T04:20:16.835Z,100008.41
2022-11-12T04:23:02.804Z,100010.25
2022-11-12T04:26:06.800Z,100006.69
2022-11-12T04:29:10.652Z,100008.50
2022-11-12T04:31:55.895Z,100007.63
2022-11-12T04:34:41.289Z,100002.31
2022-11-12T04:37:28.959Z,100004.97
2022-11-12T04:40:33.784Z,99998.84
2022-11-12T04:43:37.675Z,99997.13
2022-11-12T04:46:22.954Z,99999.84
2022-11-12T04:49:07.950Z,100002.50
2022-11-12T04:52:11.386Z,100008.63
2022-11-12T04:54:57.706Z,100012.19
2022-11-12T04:57:42.874Z,100009.53
2022-11-12T05:00:28.216Z,100005.28
2022-11-12T05:03:13.312Z,100014.84
2022-11-12T05:06:03.297Z,99994.16
2022-11-12T05:08:48.624Z,100008.78
2022-11-12T05:11:33.764Z,100007.84
2022-11-12T05:14:19.032Z,100001.69
2022-11-12T05:17:05.118Z,100004.34
2022-11-12T05:19:50.101Z,100003.50
2022-11-12T05:22:45.569Z,100002.63
2022-11-12T05:25:33.149Z,100004.44
2022-11-12T05:28:18.500Z,100002.72
2022-11-12T05:31:03.895Z,100011.47
2022-11-12T05:33:49.090Z,100006.19
2022-11-12T05:36:34.537Z,100002.78
2022-11-12T05:39:19.787Z,100017.69
2022-11-12T05:42:13.092Z,100016.84
2022-11-12T05:44:59.283Z,100018.69
2022-11-12T05:47:44.540Z,100023.06
2022-11-12T05:50:35.017Z,100029.28
2022-11-12T05:53:25.326Z,100024.91
2022-11-12T05:56:11.995Z,100020.59
2022-11-12T05:58:57.744Z,100012.66
2022-11-12T06:01:45.801Z,100019.72
2022-11-12T06:04:30.708Z,100026.88
2022-11-12T06:07:15.838Z,100026.00
2022-11-12T06:10:01.048Z,100025.19
2022-11-12T06:12:46.382Z,100033.28
2022-11-12T06:15:36.505Z,100040.28
2022-11-12T06:18:25.009Z,100040.28
2022-11-12T06:21:22.869Z,100036.78
2022-11-12T06:24:08.002Z,100034.22
2022-11-12T06:26:53.187Z,100033.41
2022-11-12T06:29:41.417Z,100043.94
2022-11-12T06:32:26.512Z,100043.94
2022-11-12T06:35:11.772Z,100044.00
2022-11-12T06:37:56.910Z,100050.06
2022-11-12T06:40:42.832Z,100053.44
2022-11-12T06:43:29.707Z,100056.69
2022-11-12T06:46:16.741Z,100054.94
2022-11-12T06:49:01.810Z,100063.78
2022-11-12T06:51:47.159Z,100048.31
2022-11-12T06:54:32.404Z,100056.00
2022-11-12T06:57:17.752Z,100064.84
2022-11-12T07:00:03.570Z,100059.72
2022-11-12T07:02:49.160Z,100059.81
2022-11-12T07:05:38.614Z,100060.84
2022-11-12T07:08:24.293Z,100065.00
2022-11-12T07:11:10.098Z,100067.00
2022-11-12T07:13:55.450Z,100066.94
2022-11-12T07:16:40.675Z,100066.09
2022-11-12T07:19:26.347Z,100072.38
2022-11-12T07:22:11.151Z,100076.78
2022-11-12T07:24:56.068Z,100075.94
2022-11-12T07:27:41.227Z,100069.84
2022-11-12T07:30:26.363Z,100075.16
2022-11-12T07:33:11.539Z,100076.00
2022-11-12T07:36:02.870Z,100071.66
2022-11-12T07:38:51.943Z,99993.56
2022-11-12T07:41:36.959Z,100067.28
2022-11-12T07:44:22.073Z,100061.09
2022-11-12T07:47:07.160Z,100064.56
2022-11-12T07:49:52.487Z,100021.66
2022-11-12T07:52:37.799Z,100067.94
2022-11-12T07:55:23.098Z,100069.66
2022-11-12T07:58:08.354Z,100064.28
2022-11-12T08:00:53.969Z,100067.78
2022-11-12T08:03:39.806Z,100065.13
2022-11-12T08:06:25.712Z,100069.56
2022-11-12T08:09:11.257Z,100071.38
2022-11-12T08:11:56.359Z,100076.66
2022-11-12T08:14:41.352Z,100064.28
2022-11-12T08:17:26.441Z,100070.41
2022-11-12T08:20:12.927Z,100049.81
2022-11-12T08:23:01.125Z,100069.50
2022-11-12T08:25:46.203Z,100069.50
2022-11-12T08:28:33.382Z,100076.50
2022-11-12T08:31:21.303Z,100071.28
2022-11-12T08:34:12.453Z,100077.38
2022-11-12T08:36:58.106Z,100079.13
2022-11-12T08:39:43.446Z,100074.78
2022-11-12T08:42:28.839Z,100079.13
2022-11-12T08:45:14.275Z,100080.03
2022-11-12T08:48:01.287Z,100062.72
2022-11-12T08:50:46.538Z,100082.50
2022-11-12T08:53:32.033Z,100088.63
2022-11-12T08:56:17.533Z,100083.34
2022-11-12T08:59:07.177Z,100090.31
2022-11-12T09:01:52.571Z,100092.88
2022-11-12T09:04:37.817Z,100090.13
2022-11-12T09:07:48.805Z,100090.06
2022-11-12T09:10:29.497Z,100087.38
2022-11-12T09:13:15.358Z,100087.28
2022-11-12T09:16:07.688Z,100089.78
2022-11-12T09:18:52.871Z,100099.34
2022-11-12T09:21:38.510Z,100086.06
2022-11-12T09:24:23.687Z,100061.88
2022-11-12T09:27:08.689Z,100086.78
2022-11-12T09:29:54.076Z,100093.72
2022-11-12T09:32:39.279Z,100079.63
2022-11-12T09:35:24.503Z,100080.41
2022-11-12T09:38:09.716Z,100080.28
2022-11-12T09:41:04.043Z,100081.97
2022-11-12T09:43:53.936Z,100020.09
2022-11-12T09:46:43.423Z,100077.47
2022-11-12T09:49:36.023Z,100078.28
2022-11-12T09:52:25.938Z,100077.41
2022-11-12T09:55:32.445Z,100075.63
2022-11-12T09:58:19.189Z,100075.63
2022-11-12T10:01:18.514Z,100084.41
2022-11-12T10:04:28.434Z,100085.28
2022-11-12T10:07:38.614Z,100088.75
2022-11-12T10:10:46.163Z,100071.19
2022-11-12T10:13:58.884Z,100076.38
2022-11-12T10:16:50.135Z,100072.06
2022-11-12T10:19:54.448Z,100071.19
2022-11-12T10:22:59.787Z,100073.81
2022-11-12T10:25:48.604Z,100072.97
2022-11-12T10:28:41.244Z,100072.06
2022-11-12T10:31:26.604Z,100071.19
2022-11-12T10:34:15.960Z,100064.97
2022-11-12T10:37:12.022Z,100064.00
2022-11-12T10:39:57.438Z,100062.19
2022-11-12T10:43:04.280Z,100062.13
2022-11-12T10:45:50.638Z,100062.97
2022-11-12T10:48:36.634Z,100061.22
2022-11-12T10:51:31.748Z,100065.53
2022-11-12T10:54:26.584Z,100057.59
2022-11-12T10:57:26.207Z,100058.47
2022-11-12T11:00:14.453Z,100044.38
2022-11-12T11:03:02.868Z,100045.25
2022-11-12T11:05:59.426Z,100025.31
2022-11-12T11:08:50.483Z,100039.06
2022-11-12T11:11:35.740Z,100043.38
2022-11-12T11:14:33.108Z,100038.16
2022-11-12T11:17:18.976Z,100045.19
2022-11-12T11:20:09.184Z,100046.91
2022-11-12T11:23:02.429Z,100039.81
2022-11-12T11:25:52.283Z,100025.03
2022-11-12T11:29:25.559Z,100037.88
2022-11-12T11:32:16.643Z,100037.81
2022-11-12T11:35:38.831Z,100029.88
2022-11-12T11:38:42.099Z,100032.53
2022-11-12T11:41:48.895Z,100020.16
2022-11-12T11:45:03.923Z,100020.22
2022-11-12T11:48:02.664Z,100025.34
2022-11-12T11:50:57.196Z,100023.59
2022-11-12T11:53:51.214Z,100019.97
2022-11-12T11:56:43.033Z,100009.41
2022-11-12T11:59:40.920Z,100012.03
2022-11-12T12:03:00.189Z,100013.84
2022-11-12T12:06:10.897Z,100013.84
2022-11-12T12:09:22.840Z,100006.75
2022-11-12T12:12:32.174Z,100005.06
2022-11-12T12:15:46.098Z,100007.63
2022-11-12T12:18:45.377Z,99998.81
2022-11-12T12:21:32.191Z,99997.88
2022-11-12T12:24:31.224Z,100001.41
2022-11-12T12:27:24.716Z,99996.13
2022-11-12T12:30:25.030Z,99989.91
2022-11-12T12:33:33.291Z,99998.69
2022-11-12T12:36:41.340Z,99996.03
2022-11-12T12:39:35.859Z,99998.69
2022-11-12T12:42:37.281Z,99999.53
2022-11-12T12:45:39.502Z,99996.88
2022-11-12T12:48:38.199Z,100005.69
2022-11-12T12:51:24.460Z,100001.25
2022-11-12T12:54:34.586Z,100001.25
2022-11-12T12:57:36.632Z,99998.59
2022-11-12T13:00:39.638Z,99997.75
2022-11-12T13:03:53.402Z,99997.75
2022-11-12T13:06:45.899Z,99992.47
2022-11-12T13:12:05.470Z,99990.53
2022-11-12T13:14:53.538Z,99991.44
2022-11-12T13:17:48.122Z,99995.81
2022-11-12T13:20:36.674Z,100002.81
2022-11-12T13:24:06.969Z,99996.66
2022-11-12T13:26:53.630Z,99994.88
2022-11-12T13:29:41.149Z,99989.59
2022-11-12T13:32:35.836Z,99992.25
2022-11-12T13:35:20.934Z,99987.78
2022-11-12T13:38:09.223Z,99987.78
2022-11-12T13:41:16.204Z,99993.06
2022-11-12T13:44:06.151Z,99990.44
2022-11-12T13:46:52.655Z,99979.84
2022-11-12T13:49:38.168Z,99979.06
2022-11-12T13:52:24.231Z,99979.00
2022-11-12T13:55:18.302Z,99980.69
2022-11-12T13:58:03.439Z,99984.22
2022-11-12T14:01:00.462Z,99984.22
2022-11-12T14:03:49.154Z,99986.84
2022-11-12T14:06:39.032Z,99978.22
2022-11-12T14:10:01.325Z,99981.56
2022-11-12T14:13:18.978Z,99981.56
2022-11-12T14:16:34.153Z,99975.41
2022-11-12T14:19:29.088Z,99981.56
2022-11-12T14:22:17.531Z,99980.69
2022-11-12T14:25:03.559Z,99960.63
2022-11-12T14:28:12.798Z,99978.94
2022-11-12T14:31:00.297Z,99972.75
2022-11-12T14:33:45.493Z,99973.72
2022-11-12T14:36:30.928Z,99978.94
2022-11-12T14:39:20.187Z,99976.38
2022-11-12T14:42:05.672Z,99980.78
2022-11-12T14:44:51.173Z,99977.28
2022-11-12T14:47:36.044Z,99975.56
2022-11-12T14:50:30.179Z,99975.66
2022-11-12T14:53:25.228Z,99973.06
2022-11-12T14:56:26.682Z,99968.75
2022-11-12T14:59:16.372Z,99970.50
2022-11-12T15:02:31.343Z,99956.66
2022-11-12T15:05:21.208Z,99977.53
2022-11-12T15:08:11.585Z,99974.97
2022-11-12T15:11:18.764Z,99970.50
2022-11-12T15:14:06.446Z,99974.88
2022-11-12T15:16:53.115Z,99978.34
2022-11-12T15:19:42.372Z,99986.28
2022-11-12T15:22:27.812Z,99986.28
2022-11-12T15:25:23.489Z,99980.88
2022-11-12T15:28:22.635Z,99982.59
2022-11-12T15:31:17.692Z,99991.44
2022-11-12T15:34:27.628Z,99986.16
2022-11-12T15:37:18.488Z,99986.16
2022-11-12T15:40:14.731Z,99983.50
2022-11-12T15:43:02.109Z,99987.88
2022-11-12T15:45:52.622Z,99992.28
2022-11-12T15:48:38.107Z,99985.22
2022-11-12T15:51:23.535Z,99993.16
2022-11-12T15:54:08.920Z,99980.94
2022-11-12T15:56:54.942Z,99999.22
2022-11-12T15:59:40.990Z,99989.72
2022-11-12T16:02:26.720Z,100006.22
2022-11-12T16:05:14.099Z,100003.56
2022-11-12T16:07:59.716Z,100008.03
2022-11-12T16:10:46.443Z,100022.97
2022-11-12T16:13:36.053Z,100016.81
2022-11-12T16:16:21.354Z,100022.09
2022-11-12T16:19:14.326Z,100022.97
2022-11-12T16:22:01.460Z,100019.41
2022-11-12T16:24:46.423Z,100030.03
2022-11-12T16:29:57.921Z,100019.41
2022-11-12T16:32:43.730Z,100016.75
2022-11-12T16:35:33.148Z,99991.75
2022-11-12T16:38:18.151Z,100017.59
2022-11-12T16:41:03.608Z,100017.59
2022-11-12T16:43:51.952Z,100012.31
2022-11-12T16:46:41.879Z,100005.28
2022-11-12T16:49:27.482Z,100009.56
2022-11-12T16:52:12.872Z,100018.38
2022-11-12T16:55:04.140Z,100020.16
2022-11-12T16:57:50.039Z,100015.78
2022-11-12T17:00:35.431Z,100018.44
2022-11-12T17:03:20.947Z,100017.59
2022-11-12T17:06:06.501Z,100020.22
2022-11-12T17:08:54.919Z,100021.94
2022-11-12T17:11:40.230Z,100029.97
2022-11-12T17:14:28.390Z,100020.31
2022-11-12T17:17:13.895Z,100028.25
2022-11-12T17:19:59.220Z,100027.38
2022-11-12T17:22:45.005Z,100030.91
2022-11-12T17:25:29.951Z,100022.56
2022-11-12T17:28:15.396Z,100027.38
2022-11-12T17:31:06.056Z,100025.66
2022-11-12T17:33:52.983Z,100037.13
2022-11-12T17:36:43.310Z,100037.13
2022-11-12T17:39:28.815Z,100032.66
2022-11-12T17:42:14.166Z,100035.41
2022-11-12T17:44:59.431Z,100038.91
2022-11-12T17:47:44.831Z,100027.38
2022-11-12T17:50:30.076Z,100037.97
2022-11-12T17:53:15.972Z,100036.19
2022-11-12T17:56:01.808Z,100039.69
2022-11-12T17:58:49.034Z,100029.31
2022-11-12T18:01:35.067Z,100024.91
2022-11-12T18:04:22.439Z,100027.47
2022-11-12T18:07:09.244Z,100022.25
2022-11-12T18:09:54.982Z,100029.28
2022-11-12T18:12:40.666Z,100035.50
2022-11-12T18:15:26.159Z,100036.41
2022-11-12T18:18:11.405Z,100028.56
2022-11-12T18:20:56.746Z,100028.09
2022-11-12T18:23:44.014Z,100036.50
2022-11-12T18:26:28.987Z,100035.63
2022-11-12T18:29:14.236Z,100040.91
2022-11-12T18:31:59.586Z,100050.56
2022-11-12T18:34:45.182Z,100052.41
2022-11-12T18:37:30.179Z,100049.88
2022-11-12T18:40:15.950Z,100059.59
2022-11-12T18:43:01.446Z,100066.66
2022-11-12T18:45:54.520Z,100071.91
2022-11-12T18:48:40.430Z,100086.91
2022-11-12T18:51:26.076Z,100073.66
2022-11-12T18:54:11.595Z,100085.13
2022-11-12T18:56:56.711Z,100075.31
2022-11-12T18:59:41.991Z,100077.94
2022-11-12T19:02:27.406Z,100075.31
2022-11-12T19:05:12.703Z,100092.81
2022-11-12T19:07:58.345Z,100092.75
2022-11-12T19:10:43.455Z,100086.59
2022-11-12T19:13:30.047Z,100091.88
2022-11-12T19:16:19.504Z,100099.72
2022-11-12T19:19:04.583Z,100102.38
2022-11-12T19:21:50.110Z,100097.09
2022-11-12T19:24:37.574Z,100100.69
2022-11-12T19:27:23.236Z,100103.19
2022-11-12T19:30:09.467Z,100098.81
2022-11-12T19:32:54.500Z,100105.81
2022-11-12T19:35:40.682Z,100095.69
2022-11-12T19:38:26.160Z,100103.19
2022-11-12T19:41:19.084Z,100117.19
2022-11-12T19:44:04.879Z,100103.19
2022-11-12T19:46:50.133Z,100117.19
2022-11-12T19:49:35.476Z,100118.91
2022-11-12T19:52:21.948Z,100121.56
2022-11-12T19:55:07.729Z,100125.06
2022-11-12T19:57:52.641Z,100109.16
2022-11-12T20:00:38.031Z,100105.59
2022-11-12T20:03:25.071Z,100113.53
2022-11-12T20:06:11.435Z,100114.31
2022-11-12T20:09:03.872Z,100114.31
2022-11-12T20:11:53.706Z,100109.88
2022-11-12T20:14:38.978Z,100113.38
2022-11-12T20:17:24.495Z,100115.09
2022-11-12T20:20:10.397Z,100120.38
2022-11-12T20:22:55.866Z,100125.69
2022-11-12T20:25:41.047Z,100112.44
2022-11-12T20:28:26.360Z,100115.97
2022-11-12T20:31:20.313Z,100115.09
2022-11-12T20:34:05.616Z,100126.56
2022-11-12T20:36:50.843Z,100127.38
2022-11-12T20:39:35.984Z,100129.97
2022-11-12T20:42:21.229Z,100128.22
2022-11-12T20:45:06.797Z,100125.59
2022-11-12T20:47:51.676Z,100128.19
2022-11-12T20:50:37.255Z,100125.53
2022-11-12T20:53:22.497Z,100133.47
2022-11-12T20:56:13.665Z,100115.16
2022-11-12T20:58:59.237Z,100112.75
2022-11-12T21:01:44.801Z,100117.59
2022-11-12T21:04:30.244Z,100121.09
2022-11-12T21:07:15.513Z,100118.34
2022-11-12T21:10:00.630Z,100114.88
2022-11-12T21:12:46.036Z,100106.94
2022-11-12T21:15:31.519Z,100104.28
2022-11-12T21:18:17.623Z,100106.00
2022-11-12T21:21:09.488Z,100094.53
2022-11-12T21:23:54.911Z,100098.91
2022-11-12T21:26:40.383Z,100110.38
2022-11-12T21:29:25.723Z,100113.00
2022-11-12T21:32:10.987Z,100114.69
2022-11-12T21:34:56.689Z,100113.00
2022-11-12T21:37:41.972Z,100110.38
2022-11-12T21:40:27.124Z,100116.50
2022-11-12T21:43:12.362Z,100114.78
2022-11-12T21:45:57.883Z,100104.41
2022-11-12T21:48:44.184Z,100089.66
2022-11-12T21:51:31.665Z,100095.34
2022-11-12T21:54:16.591Z,100099.69
2022-11-12T21:57:01.881Z,100109.41
2022-11-12T21:59:47.151Z,100106.75
2022-11-12T22:02:32.549Z,100103.28
2022-11-12T22:05:17.923Z,100106.75
2022-11-12T22:08:03.095Z,100099.69
2022-11-12T22:10:48.362Z,100096.19
2022-11-12T22:13:34.304Z,100104.13
2022-11-12T22:16:24.854Z,100101.47
2022-11-12T22:19:11.289Z,100097.06
2022-11-12T22:21:56.551Z,100105.00
2022-11-12T22:24:41.877Z,100104.06
2022-11-12T22:29:53.563Z,100108.47
2022-11-12T22:32:38.821Z,100098.78
2022-11-12T22:35:23.932Z,100100.53
2022-11-12T22:38:09.228Z,100097.91
2022-11-12T22:41:01.064Z,100092.59
2022-11-12T22:43:51.353Z,100094.50
2022-11-12T22:46:36.686Z,100078.03
2022-11-12T22:49:21.844Z,100092.59
2022-11-12T22:52:07.064Z,100089.13
2022-11-12T22:54:52.292Z,100077.59
2022-11-12T22:57:37.354Z,100081.09
2022-11-12T23:00:31.848Z,100082.81
2022-11-12T23:03:17.195Z,100072.31
2022-11-12T23:06:05.703Z,100078.44
2022-11-12T23:08:52.861Z,100074.09
2022-11-12T23:11:38.372Z,100076.69
2022-11-12T23:14:23.642Z,100073.16
2022-11-12T23:17:08.763Z,100067.25
2022-11-12T23:19:54.610Z,100081.00
2022-11-12T23:22:40.293Z,100072.22
2022-11-12T23:25:25.637Z,100055.16
2022-11-12T23:28:11.151Z,100075.81
2022-11-12T23:30:56.378Z,100071.38
2022-11-12T23:33:45.751Z,100066.09
2022-11-12T23:36:31.647Z,100069.59
2022-11-12T23:39:16.671Z,100064.28
2022-11-12T23:42:01.759Z,100063.44
2022-11-12T23:44:46.956Z,100059.00
2022-11-12T23:47:31.906Z,100063.44
2022-11-12T23:50:17.385Z,100052.84
2022-11-12T23:53:02.637Z,100051.06
2022-11-12T23:55:47.942Z,100055.50
2022-11-12T23:58:33.471Z,100060.81
